Cuneyt Solakoglu — TCTN4 — position and weather

sailwx.info

Track history (hours):
 
Tides and Currents Weather Stations Pressure Air Temp Water Temp Dewpoint Dewpoint Depression Visibility Wind Speed Wind Dir Waves Ship Positions

Cuneyt Solakoglu

Last reported at 2018-Apr-22 06:30 UTC. Time now 2018-Apr-22 06:57 UTC.
Position N 42°46' E 006°29'.

Length 223 m; draft 6.1 m.

Type: Ship. MMSI: 271002676.

Date/timePositionNaut miles runAvg speedWind from/ knotsBaromVisibWave heightAir tempDewpointWater temp
2018-Apr-22 06:30N 42°46' E 006°29'1019.2
2018-Apr-22 06:00N 42°41' E 006°39'1019.2
2018-Apr-22 05:30N 42°35' E 006°49'1019.0
2018-Apr-22 05:00N 42°29' E 006°59'1019.1
2018-Apr-22 04:28N 42°23' E 007°11'1119.2
2018-Apr-22 03:53N 42°16' E 007°23'719.0
2018-Apr-22 03:30N 42°12' E 007°31'1019.3
2018-Apr-22 02:58N 42°05' E 007°41'919.3
2018-Apr-22 02:30N 41°60' E 007°51'18418.9
2018-Apr-21 16:47N 40°29' E 011°24'1019.2
2018-Apr-21 16:17N 40°24' E 011°34'1319.1
2018-Apr-21 15:36N 40°17' E 011°49'719.0
2018-Apr-21 15:13N 40°14' E 011°57'7419.6
2018-Apr-21 11:26N 39°35' E 013°20'819.8
2018-Apr-21 11:00N 39°31' E 013°29'1019.8
2018-Apr-21 10:30N 39°26' E 013°40'1019.5
2018-Apr-21 10:00N 39°20' E 013°51'1419.3
2018-Apr-21 09:16N 39°13' E 014°06'2519.4
2018-Apr-21 07:58N 38°60' E 014°34'919.7
2018-Apr-21 07:30N 38°55' E 014°44'1119.8
2018-Apr-21 06:58N 38°49' E 014°56'1019.7
2018-Apr-21 06:29N 38°44' E 015°06'919.5
2018-Apr-21 06:00N 38°38' E 015°15'1019.3
2018-Apr-21 05:30N 38°31' E 015°24'1019.3
2018-Apr-21 05:00N 38°25' E 015°33'1019.5
2018-Apr-21 04:30N 38°18' E 015°42'816.2
2018-Apr-21 04:00N 38°11' E 015°37'816.9
2018-Apr-21 03:30N 38°03' E 015°36'917.9
2018-Apr-21 03:00N 37°54' E 015°41'1019.7
2018-Apr-21 02:30N 37°51' E 015°53'37817.7
2018-Apr-20 05:06N 37°08' E 023°47'  
2018-Apr-18 00:21N 37°20' E 024°08'819.1
2018-Apr-17 23:57N 37°14' E 024°02'918.8
2018-Apr-17 23:29N 37°07' E 023°55'3319.1
2018-Apr-17 21:46N 36°42' E 023°29'819.1
2018-Apr-17 21:21N 36°35' E 023°23'35918.7
2018-Apr-17 02:08N 37°49' E 016°02'218.9
2018-Apr-17 02:00N 37°49' E 015°59'1019.2
2018-Apr-17 01:30N 37°52' E 015°47'1019.6
2018-Apr-17 00:59N 37°58' E 015°36'918.6
2018-Apr-17 00:30N 38°07' E 015°34'1019.5
2018-Apr-17 00:00N 38°15' E 015°40'817.0
2018-Apr-16 23:30N 38°23' E 015°34'1019.2
2018-Apr-16 23:00N 38°29' E 015°25'1019.0
2018-Apr-16 22:29N 38°36' E 015°16'1019.3
2018-Apr-16 21:58N 38°42' E 015°06'1119.2
2018-Apr-16 21:23N 38°48' E 014°54'6319.2
2018-Apr-16 18:06N 39°21' E 013°45'519.1
2018-Apr-16 17:50N 39°24' E 013°39'31718.9
2018-Apr-16 01:02N 42°06' E 007°40'219.3
2018-Apr-16 00:57N 42°07' E 007°38'1019.2
2018-Apr-16 00:26N 42°13' E 007°27'919.2
2018-Apr-15 23:58N 42°18' E 007°18'7418.9
2018-Apr-15 20:03N 43°04' E 005°58'114.7
2018-Apr-15 20:00N 43°05' E 005°58'4 7.0
2018-Apr-15 19:30N 43°06' E 005°54'0 0.0
2018-Apr-15 19:00N 43°06' E 005°54'0 0.0
2018-Apr-15 18:27N 43°06' E 005°54'0 0.0
2018-Apr-15 17:59N 43°06' E 005°54'0 0.0
2018-Apr-15 17:29N 43°06' E 005°54'0 0.0
2018-Apr-15 16:59N 43°06' E 005°54'0 0.0
2018-Apr-15 16:29N 43°06' E 005°54'0 0.0
2018-Apr-15 15:58N 43°06' E 005°54'0 0.0
2018-Apr-15 15:22N 43°06' E 005°54'0 0.0
2018-Apr-15 14:58N 43°06' E 005°54'0 0.0
2018-Apr-15 14:28N 43°06' E 005°54'0 0.0
2018-Apr-15 14:00N 43°06' E 005°54'0 0.0
2018-Apr-15 13:30N 43°06' E 005°54'0 0.0
2018-Apr-15 13:00N 43°06' E 005°54'0 0.0
2018-Apr-15 12:30N 43°06' E 005°54'0 0.0
2018-Apr-15 12:00N 43°06' E 005°54'0 0.0
2018-Apr-15 11:29N 43°06' E 005°54'0 0.0
2018-Apr-15 10:59N 43°06' E 005°54'0 0.0
2018-Apr-15 10:29N 43°06' E 005°54'0 0.0
2018-Apr-15 09:59N 43°06' E 005°54'0 0.0
2018-Apr-15 09:28N 43°06' E 005°54'0 0.0
2018-Apr-15 08:58N 43°06' E 005°54'0 0.0
2018-Apr-15 08:28N 43°06' E 005°54'0 0.0
2018-Apr-15 07:58N 43°06' E 005°54'2 3.9
2018-Apr-15 07:30N 43°05' E 005°55'38519.1
2018-Apr-14 11:19N 39°40' E 013°10'619.9
2018-Apr-14 11:00N 39°36' E 013°17'1020.0
2018-Apr-14 10:31N 39°31' E 013°28'1019.9
2018-Apr-14 10:00N 39°26' E 013°39'1019.8
2018-Apr-14 09:30N 39°21' E 013°50'1519.9
2018-Apr-14 08:47N 39°13' E 014°06'2719.9
2018-Apr-14 07:25N 38°59' E 014°36'919.7
2018-Apr-14 06:57N 38°54' E 014°46'1019.8
2018-Apr-14 06:26N 38°49' E 014°56'919.9
2018-Apr-14 06:00N 38°44' E 015°06'1019.9
2018-Apr-14 05:30N 38°38' E 015°16'1019.8
2018-Apr-14 05:00N 38°32' E 015°26'1020.1
2018-Apr-14 04:30N 38°24' E 015°34'1019.6
2018-Apr-14 04:00N 38°17' E 015°43'917.8
2018-Apr-14 03:30N 38°10' E 015°37'918.1
2018-Apr-14 03:00N 38°01' E 015°37'918.4
2018-Apr-14 02:30N 37°54' E 015°44'1019.4
2018-Apr-14 02:00N 37°51' E 015°55'6019.6
2018-Apr-13 22:56N 37°34' E 017°09'818.5
2018-Apr-13 22:29N 37°32' E 017°19'1620.3
2018-Apr-13 21:40N 37°27' E 017°39'1418.7
2018-Apr-13 20:55N 37°24' E 017°56'818.7
2018-Apr-13 20:29N 37°22' E 018°06'2920.3
2018-Apr-13 19:03N 37°13' E 018°41'114.0
2018-Apr-13 18:59N 37°13' E 018°42'24616.9
2018-Apr-13 04:26N 37°14' E 023°51'17019.5
2018-Apr-12 19:43N 39°39' E 025°43'519.6
2018-Apr-12 19:27N 39°43' E 025°46'919.5
2018-Apr-12 18:58N 39°51' E 025°53'1019.6
2018-Apr-12 18:28N 39°60' E 025°59'  
Track history (hours):
 
Tides and Currents Weather Stations Pressure Air Temp Water Temp Dewpoint Dewpoint Depression Visibility Wind Speed Wind Dir Waves Ship Positions

Cuneyt Solakoglu

Last reported at 2018-Apr-22 06:30 UTC. Time now 2018-Apr-22 06:57 UTC.
Position N 42°46' E 006°29'.

Length 223 m; draft 6.1 m.

Type: Ship. MMSI: 271002676.

Date/timePositionNaut miles runAvg speedWind from/ knotsBaromVisibWave heightAir tempDewpointWater temp
2018-Apr-22 06:30N 42°46' E 006°29'1019.2
2018-Apr-22 06:00N 42°41' E 006°39'1019.2
2018-Apr-22 05:30N 42°35' E 006°49'1019.0
2018-Apr-22 05:00N 42°29' E 006°59'1019.1
2018-Apr-22 04:28N 42°23' E 007°11'1119.2
2018-Apr-22 03:53N 42°16' E 007°23'719.0
2018-Apr-22 03:30N 42°12' E 007°31'1019.3
2018-Apr-22 02:58N 42°05' E 007°41'919.3
2018-Apr-22 02:30N 41°60' E 007°51'18418.9
2018-Apr-21 16:47N 40°29' E 011°24'1019.2
2018-Apr-21 16:17N 40°24' E 011°34'1319.1
2018-Apr-21 15:36N 40°17' E 011°49'719.0
2018-Apr-21 15:13N 40°14' E 011°57'7419.6
2018-Apr-21 11:26N 39°35' E 013°20'819.8
2018-Apr-21 11:00N 39°31' E 013°29'1019.8
2018-Apr-21 10:30N 39°26' E 013°40'1019.5
2018-Apr-21 10:00N 39°20' E 013°51'1419.3
2018-Apr-21 09:16N 39°13' E 014°06'2519.4
2018-Apr-21 07:58N 38°60' E 014°34'919.7
2018-Apr-21 07:30N 38°55' E 014°44'1119.8
2018-Apr-21 06:58N 38°49' E 014°56'1019.7
2018-Apr-21 06:29N 38°44' E 015°06'919.5
2018-Apr-21 06:00N 38°38' E 015°15'1019.3
2018-Apr-21 05:30N 38°31' E 015°24'1019.3
2018-Apr-21 05:00N 38°25' E 015°33'1019.5
2018-Apr-21 04:30N 38°18' E 015°42'816.2
2018-Apr-21 04:00N 38°11' E 015°37'816.9
2018-Apr-21 03:30N 38°03' E 015°36'917.9
2018-Apr-21 03:00N 37°54' E 015°41'1019.7
2018-Apr-21 02:30N 37°51' E 015°53'37817.7
2018-Apr-20 05:06N 37°08' E 023°47'  
2018-Apr-18 00:21N 37°20' E 024°08'819.1
2018-Apr-17 23:57N 37°14' E 024°02'918.8
2018-Apr-17 23:29N 37°07' E 023°55'3319.1
2018-Apr-17 21:46N 36°42' E 023°29'819.1
2018-Apr-17 21:21N 36°35' E 023°23'35918.7
2018-Apr-17 02:08N 37°49' E 016°02'218.9
2018-Apr-17 02:00N 37°49' E 015°59'1019.2
2018-Apr-17 01:30N 37°52' E 015°47'1019.6
2018-Apr-17 00:59N 37°58' E 015°36'918.6
2018-Apr-17 00:30N 38°07' E 015°34'1019.5
2018-Apr-17 00:00N 38°15' E 015°40'817.0
2018-Apr-16 23:30N 38°23' E 015°34'1019.2
2018-Apr-16 23:00N 38°29' E 015°25'1019.0
2018-Apr-16 22:29N 38°36' E 015°16'1019.3
2018-Apr-16 21:58N 38°42' E 015°06'1119.2
2018-Apr-16 21:23N 38°48' E 014°54'6319.2
2018-Apr-16 18:06N 39°21' E 013°45'519.1
2018-Apr-16 17:50N 39°24' E 013°39'31718.9
2018-Apr-16 01:02N 42°06' E 007°40'219.3
2018-Apr-16 00:57N 42°07' E 007°38'1019.2
2018-Apr-16 00:26N 42°13' E 007°27'919.2
2018-Apr-15 23:58N 42°18' E 007°18'7418.9
2018-Apr-15 20:03N 43°04' E 005°58'114.7
2018-Apr-15 20:00N 43°05' E 005°58'4 7.0
2018-Apr-15 19:30N 43°06' E 005°54'0 0.0
2018-Apr-15 19:00N 43°06' E 005°54'0 0.0
2018-Apr-15 18:27N 43°06' E 005°54'0 0.0
2018-Apr-15 17:59N 43°06' E 005°54'0 0.0
2018-Apr-15 17:29N 43°06' E 005°54'0 0.0
2018-Apr-15 16:59N 43°06' E 005°54'0 0.0
2018-Apr-15 16:29N 43°06' E 005°54'0 0.0
2018-Apr-15 15:58N 43°06' E 005°54'0 0.0
2018-Apr-15 15:22N 43°06' E 005°54'0 0.0
2018-Apr-15 14:58N 43°06' E 005°54'0 0.0
2018-Apr-15 14:28N 43°06' E 005°54'0 0.0
2018-Apr-15 14:00N 43°06' E 005°54'0 0.0
2018-Apr-15 13:30N 43°06' E 005°54'0 0.0
2018-Apr-15 13:00N 43°06' E 005°54'0 0.0
2018-Apr-15 12:30N 43°06' E 005°54'0 0.0
2018-Apr-15 12:00N 43°06' E 005°54'0 0.0
2018-Apr-15 11:29N 43°06' E 005°54'0 0.0
2018-Apr-15 10:59N 43°06' E 005°54'0 0.0
2018-Apr-15 10:29N 43°06' E 005°54'0 0.0
2018-Apr-15 09:59N 43°06' E 005°54'0 0.0
2018-Apr-15 09:28N 43°06' E 005°54'0 0.0
2018-Apr-15 08:58N 43°06' E 005°54'0 0.0
2018-Apr-15 08:28N 43°06' E 005°54'0 0.0
2018-Apr-15 07:58N 43°06' E 005°54'2 3.9
2018-Apr-15 07:30N 43°05' E 005°55'38519.1
2018-Apr-14 11:19N 39°40' E 013°10'619.9
2018-Apr-14 11:00N 39°36' E 013°17'1020.0
2018-Apr-14 10:31N 39°31' E 013°28'1019.9
2018-Apr-14 10:00N 39°26' E 013°39'1019.8
2018-Apr-14 09:30N 39°21' E 013°50'1519.9
2018-Apr-14 08:47N 39°13' E 014°06'2719.9
2018-Apr-14 07:25N 38°59' E 014°36'919.7
2018-Apr-14 06:57N 38°54' E 014°46'1019.8
2018-Apr-14 06:26N 38°49' E 014°56'919.9
2018-Apr-14 06:00N 38°44' E 015°06'1019.9
2018-Apr-14 05:30N 38°38' E 015°16'1019.8
2018-Apr-14 05:00N 38°32' E 015°26'1020.1
2018-Apr-14 04:30N 38°24' E 015°34'1019.6
2018-Apr-14 04:00N 38°17' E 015°43'917.8
2018-Apr-14 03:30N 38°10' E 015°37'918.1
2018-Apr-14 03:00N 38°01' E 015°37'918.4
2018-Apr-14 02:30N 37°54' E 015°44'1019.4
2018-Apr-14 02:00N 37°51' E 015°55'6019.6
2018-Apr-13 22:56N 37°34' E 017°09'818.5
2018-Apr-13 22:29N 37°32' E 017°19'1620.3
2018-Apr-13 21:40N 37°27' E 017°39'1418.7
2018-Apr-13 20:55N 37°24' E 017°56'818.7
2018-Apr-13 20:29N 37°22' E 018°06'2920.3
2018-Apr-13 19:03N 37°13' E 018°41'114.0
2018-Apr-13 18:59N 37°13' E 018°42'24616.9
2018-Apr-13 04:26N 37°14' E 023°51'17019.5
2018-Apr-12 19:43N 39°39' E 025°43'519.6
2018-Apr-12 19:27N 39°43' E 025°46'919.5
2018-Apr-12 18:58N 39°51' E 025°53'1019.6
2018-Apr-12 18:28N 39°60' E 025°59'  

Dump ship's entire track history